createdAt,value
2023-05-24T00:00:42.993Z,22.10
2023-05-24T00:03:18.031Z,22.00
2023-05-24T00:05:52.618Z,22.10
2023-05-24T00:08:24.332Z,22.00
2023-05-24T00:10:54.654Z,22.00
2023-05-24T00:13:26.000Z,22.10
2023-05-24T00:15:54.793Z,22.00
2023-05-24T00:18:26.962Z,22.00
2023-05-24T00:20:57.457Z,22.00
2023-05-24T00:23:33.935Z,22.00
2023-05-24T00:26:02.520Z,22.00
2023-05-24T00:28:33.989Z,22.00
2023-05-24T00:31:06.317Z,21.90
2023-05-24T00:33:43.016Z,21.90
2023-05-24T00:36:14.088Z,21.90
2023-05-24T00:38:46.870Z,21.90
2023-05-24T00:41:15.469Z,21.90
2023-05-24T00:43:46.976Z,21.90
2023-05-24T00:46:44.259Z,21.90
2023-05-24T00:49:16.238Z,21.90
2023-05-24T00:51:47.905Z,21.90
2023-05-24T00:54:18.186Z,21.90
2023-05-24T00:56:52.289Z,21.90
2023-05-24T00:59:24.321Z,21.90
2023-05-24T01:01:58.443Z,21.80
2023-05-24T01:04:30.407Z,21.80
2023-05-24T01:07:30.189Z,21.80
2023-05-24T01:10:48.773Z,21.80
2023-05-24T01:13:41.363Z,21.80
2023-05-24T01:16:20.861Z,21.80
2023-05-24T01:21:48.544Z,21.70
2023-05-24T01:24:45.454Z,21.80
2023-05-24T01:27:18.035Z,21.70
2023-05-24T01:29:53.584Z,21.70
2023-05-24T01:32:26.362Z,21.70
2023-05-24T01:34:58.315Z,21.70
2023-05-24T01:37:29.349Z,21.70
2023-05-24T01:40:00.929Z,21.70
2023-05-24T01:42:57.880Z,21.60
2023-05-24T01:46:02.508Z,21.70
2023-05-24T01:48:39.935Z,21.60
2023-05-24T01:51:14.874Z,21.60
2023-05-24T01:53:56.290Z,21.60
2023-05-24T01:59:12.939Z,21.60
2023-05-24T02:01:44.395Z,21.60
2023-05-24T02:04:14.816Z,21.60
2023-05-24T02:06:47.383Z,21.60
2023-05-24T02:09:23.312Z,21.60
2023-05-24T02:11:56.257Z,21.60
2023-05-24T02:14:26.836Z,21.50
2023-05-24T02:17:01.914Z,21.50
2023-05-24T02:19:32.364Z,21.50
2023-05-24T02:22:00.977Z,21.50
2023-05-24T02:24:32.132Z,21.50
2023-05-24T02:27:01.695Z,21.50
2023-05-24T02:29:34.307Z,21.50
2023-05-24T02:34:47.378Z,21.50
2023-05-24T02:39:59.746Z,21.50
2023-05-24T02:42:29.780Z,21.50
2023-05-24T02:45:01.053Z,21.50
2023-05-24T02:47:31.454Z,21.50
2023-05-24T02:50:03.416Z,21.50
2023-05-24T02:52:37.029Z,21.50
2023-05-24T02:55:10.733Z,21.40
2023-05-24T02:57:42.162Z,21.40
2023-05-24T03:03:03.629Z,21.40
2023-05-24T03:05:33.308Z,21.40
2023-05-24T03:08:03.967Z,21.40
2023-05-24T03:10:33.264Z,21.40
2023-05-24T03:13:04.764Z,21.40
2023-05-24T03:15:32.868Z,21.40
2023-05-24T03:18:09.214Z,21.40
2023-05-24T03:20:40.460Z,21.40
2023-05-24T03:23:10.090Z,21.30
2023-05-24T03:25:38.404Z,21.30
2023-05-24T03:28:11.934Z,21.40
2023-05-24T03:30:43.740Z,21.30
2023-05-24T03:33:12.814Z,21.30
2023-05-24T03:35:47.962Z,21.30
2023-05-24T03:38:18.797Z,21.30
2023-05-24T03:40:48.990Z,21.30
2023-05-24T03:43:18.258Z,21.30
2023-05-24T03:45:53.394Z,21.30
2023-05-24T03:48:24.382Z,21.30
2023-05-24T03:50:54.621Z,21.20
2023-05-24T03:53:26.338Z,21.20
2023-05-24T03:55:56.918Z,21.20
2023-05-24T03:58:27.053Z,21.20
2023-05-24T04:01:07.301Z,21.20
2023-05-24T04:03:38.813Z,21.20
2023-05-24T04:06:08.262Z,21.20
2023-05-24T04:08:40.169Z,21.20
2023-05-24T04:11:09.982Z,21.20
2023-05-24T04:13:38.304Z,21.20
2023-05-24T04:16:08.165Z,21.20
2023-05-24T04:21:20.113Z,21.20
2023-05-24T04:23:50.362Z,21.10
2023-05-24T04:26:19.265Z,21.10
2023-05-24T04:28:50.867Z,21.10
2023-05-24T04:31:23.847Z,21.10
2023-05-24T04:34:01.097Z,21.10
2023-05-24T04:36:34.420Z,21.10
2023-05-24T04:39:08.277Z,21.10
2023-05-24T04:41:40.364Z,21.10
2023-05-24T04:44:10.384Z,21.10
2023-05-24T04:46:42.189Z,21.10
2023-05-24T04:49:11.822Z,21.10
2023-05-24T04:51:41.259Z,21.10
2023-05-24T04:54:09.524Z,21.10
2023-05-24T04:56:38.881Z,21.10
2023-05-24T04:59:10.769Z,21.10
2023-05-24T05:01:42.781Z,21.00
2023-05-24T05:04:14.288Z,21.10
2023-05-24T05:06:44.979Z,21.00
2023-05-24T05:09:13.792Z,21.10
2023-05-24T05:11:45.849Z,21.10
2023-05-24T05:14:14.844Z,21.10
2023-05-24T05:16:42.913Z,21.10
2023-05-24T05:19:13.329Z,21.10
2023-05-24T05:21:43.537Z,21.00
2023-05-24T05:24:13.967Z,21.10
2023-05-24T05:26:44.839Z,21.00
2023-05-24T05:29:16.702Z,21.10
2023-05-24T05:31:46.549Z,21.00
2023-05-24T05:34:16.686Z,21.00
2023-05-24T05:36:44.829Z,21.00
2023-05-24T05:39:17.516Z,21.00
2023-05-24T05:41:51.339Z,21.00
2023-05-24T05:44:23.418Z,21.00
2023-05-24T05:46:53.342Z,21.00
2023-05-24T05:49:24.562Z,21.00
2023-05-24T05:51:55.207Z,21.00
2023-05-24T05:54:25.031Z,21.00
2023-05-24T05:56:56.579Z,21.00
2023-05-24T05:59:26.661Z,21.00
2023-05-24T06:01:57.004Z,21.00
2023-05-24T06:04:27.698Z,21.00
2023-05-24T06:06:57.637Z,21.00
2023-05-24T06:09:29.347Z,21.00
2023-05-24T06:12:01.765Z,21.00
2023-05-24T06:14:33.200Z,21.00
2023-05-24T06:17:02.333Z,21.00
2023-05-24T06:19:33.253Z,21.00
2023-05-24T06:22:01.736Z,21.00
2023-05-24T06:24:32.414Z,21.00
2023-05-24T06:27:05.558Z,21.00
2023-05-24T06:29:36.425Z,21.00
2023-05-24T06:32:03.626Z,21.00
2023-05-24T06:34:34.946Z,21.00
2023-05-24T06:37:03.665Z,21.00
2023-05-24T06:39:33.972Z,21.00
2023-05-24T06:42:05.490Z,21.00
2023-05-24T06:44:38.061Z,21.00
2023-05-24T06:47:08.854Z,21.00
2023-05-24T06:49:40.875Z,21.00
2023-05-24T06:52:15.913Z,21.10
2023-05-24T06:54:45.063Z,21.20
2023-05-24T06:57:16.208Z,21.20
2023-05-24T06:59:47.831Z,21.20
2023-05-24T07:02:20.749Z,21.30
2023-05-24T07:04:52.633Z,21.40
2023-05-24T07:07:25.663Z,21.40
2023-05-24T07:10:01.556Z,21.50
2023-05-24T07:12:35.912Z,21.60
2023-05-24T07:15:16.938Z,21.70
2023-05-24T07:17:48.860Z,21.80
2023-05-24T07:20:18.481Z,21.90
2023-05-24T07:22:49.835Z,22.00
2023-05-24T07:25:18.975Z,22.10
2023-05-24T07:27:50.059Z,22.30
2023-05-24T07:30:31.716Z,22.30
2023-05-24T07:33:06.786Z,22.40
2023-05-24T07:35:42.377Z,22.50
2023-05-24T07:38:11.423Z,22.60
2023-05-24T07:40:40.133Z,22.60
2023-05-24T07:43:09.783Z,22.70
2023-05-24T07:45:41.367Z,22.70
2023-05-24T07:48:11.280Z,22.80
2023-05-24T07:50:43.189Z,22.80
2023-05-24T07:53:14.912Z,22.80
2023-05-24T07:55:45.702Z,22.80
2023-05-24T07:58:15.935Z,22.70
2023-05-24T08:00:48.825Z,22.60
2023-05-24T08:03:21.235Z,22.60
2023-05-24T08:05:52.936Z,22.50
2023-05-24T08:08:25.005Z,22.50
2023-05-24T08:10:54.996Z,22.50
2023-05-24T08:13:25.366Z,22.50
2023-05-24T08:15:53.135Z,22.40
2023-05-24T08:18:24.512Z,22.40
2023-05-24T08:20:55.013Z,22.30
2023-05-24T08:23:23.145Z,22.30
2023-05-24T08:25:53.008Z,22.30
2023-05-24T08:28:27.495Z,22.20
2023-05-24T08:30:58.062Z,22.20
2023-05-24T08:33:27.618Z,22.20
2023-05-24T08:35:59.526Z,22.10
2023-05-24T08:38:30.470Z,22.10
2023-05-24T08:40:59.354Z,22.10
2023-05-24T08:46:16.218Z,22.00
2023-05-24T08:48:50.638Z,22.00
2023-05-24T08:51:18.730Z,22.00
2023-05-24T08:54:11.057Z,22.00
2023-05-24T08:56:45.742Z,22.00
2023-05-24T08:59:15.557Z,21.90
2023-05-24T09:02:00.872Z,21.90
2023-05-24T09:04:30.697Z,21.90
2023-05-24T09:07:02.755Z,21.90
2023-05-24T09:09:35.106Z,21.90
2023-05-24T09:12:07.912Z,21.80
2023-05-24T09:14:38.605Z,21.80
2023-05-24T09:17:09.046Z,21.80
2023-05-24T09:19:41.706Z,21.80
2023-05-24T09:22:08.948Z,21.80
2023-05-24T09:24:47.743Z,21.80
2023-05-24T09:27:24.469Z,21.80
2023-05-24T09:29:54.100Z,21.80
2023-05-24T09:32:24.802Z,21.80
2023-05-24T09:34:56.059Z,21.80
2023-05-24T09:40:23.996Z,21.80
2023-05-24T09:43:05.009Z,21.80
2023-05-24T09:45:33.693Z,21.80
2023-05-24T09:48:22.532Z,21.80
2023-05-24T09:51:28.174Z,21.80
2023-05-24T09:54:03.232Z,21.80
2023-05-24T09:56:38.199Z,21.80
2023-05-24T09:59:10.110Z,21.80
2023-05-24T10:01:42.058Z,21.80
2023-05-24T10:04:40.943Z,21.80
2023-05-24T10:07:12.788Z,21.80
2023-05-24T10:09:44.514Z,21.80
2023-05-24T10:12:13.676Z,21.80
2023-05-24T10:14:47.204Z,21.80
2023-05-24T10:17:15.373Z,21.80
2023-05-24T10:20:04.688Z,21.80
2023-05-24T10:22:42.788Z,21.80
2023-05-24T10:25:25.969Z,21.90
2023-05-24T10:28:05.006Z,21.80
2023-05-24T10:30:44.110Z,21.90
2023-05-24T10:33:23.951Z,21.90
2023-05-24T10:35:53.485Z,21.80
2023-05-24T10:38:27.674Z,21.90
2023-05-24T10:40:58.256Z,21.80
2023-05-24T10:43:30.174Z,21.80
2023-05-24T10:45:59.897Z,21.80
2023-05-24T10:48:32.172Z,21.90
2023-05-24T10:51:41.662Z,21.90
2023-05-24T10:54:42.977Z,21.80
2023-05-24T10:57:28.436Z,21.90
2023-05-24T10:59:59.237Z,21.80
2023-05-24T11:02:37.618Z,21.80
2023-05-24T11:05:08.026Z,21.80
2023-05-24T11:07:45.729Z,21.90
2023-05-24T11:10:18.844Z,21.90
2023-05-24T11:13:04.811Z,21.80
2023-05-24T11:15:34.347Z,21.90
2023-05-24T11:18:12.908Z,21.80
2023-05-24T11:20:45.772Z,21.90
2023-05-24T11:23:22.293Z,21.90
2023-05-24T11:25:52.935Z,21.90
2023-05-24T11:28:22.872Z,21.90
2023-05-24T11:31:19.329Z,21.90
2023-05-24T11:33:47.408Z,21.90
2023-05-24T11:36:19.292Z,21.90
2023-05-24T11:38:50.814Z,21.90
2023-05-24T11:41:20.008Z,21.90
2023-05-24T11:43:50.265Z,21.90
2023-05-24T11:46:23.248Z,21.90
2023-05-24T11:49:04.331Z,21.90
2023-05-24T11:51:42.564Z,21.90
2023-05-24T11:54:14.045Z,21.90
2023-05-24T11:56:45.499Z,21.90
2023-05-24T11:59:22.433Z,21.90
2023-05-24T12:02:02.821Z,21.90
2023-05-24T12:04:36.032Z,21.90
2023-05-24T12:07:07.041Z,21.90
2023-05-24T12:09:38.885Z,21.90
2023-05-24T12:12:13.015Z,21.90
2023-05-24T12:14:43.684Z,21.90
2023-05-24T12:17:18.471Z,21.90
2023-05-24T12:19:52.073Z,22.00
2023-05-24T12:22:29.325Z,21.90
2023-05-24T12:25:00.459Z,21.90
2023-05-24T12:27:31.461Z,21.90
2023-05-24T12:30:24.669Z,21.90
2023-05-24T12:32:58.023Z,22.00
2023-05-24T12:35:27.396Z,22.00
2023-05-24T12:38:03.158Z,22.00
2023-05-24T12:40:33.540Z,22.00
2023-05-24T12:45:53.532Z,22.00
2023-05-24T12:48:26.700Z,22.00
2023-05-24T12:50:56.336Z,22.00
2023-05-24T12:53:26.564Z,22.00
2023-05-24T12:56:01.532Z,22.00
2023-05-24T12:58:30.766Z,22.00
2023-05-24T13:01:00.354Z,22.00
2023-05-24T13:03:32.014Z,22.00
2023-05-24T13:06:00.346Z,22.10
2023-05-24T13:08:33.295Z,22.00
2023-05-24T13:11:02.833Z,22.00
2023-05-24T13:13:37.607Z,22.10
2023-05-24T13:16:09.433Z,22.10
2023-05-24T13:18:41.208Z,22.10
2023-05-24T13:21:12.563Z,22.10
2023-05-24T13:23:46.092Z,22.10
2023-05-24T13:26:16.867Z,22.10
2023-05-24T13:29:15.190Z,22.10
2023-05-24T13:31:44.214Z,22.10
2023-05-24T13:34:16.002Z,22.10
2023-05-24T13:36:49.985Z,22.10
2023-05-24T13:39:21.951Z,22.10
2023-05-24T13:41:53.749Z,22.10
2023-05-24T13:44:24.291Z,22.10
2023-05-24T13:46:54.477Z,22.10
2023-05-24T13:49:31.326Z,22.10
2023-05-24T13:52:03.030Z,22.10
2023-05-24T13:54:34.482Z,22.10
2023-05-24T13:57:08.517Z,22.10
2023-05-24T13:59:40.237Z,22.10
2023-05-24T14:02:08.241Z,22.10
2023-05-24T14:04:37.075Z,22.10
2023-05-24T14:07:10.750Z,22.10
2023-05-24T14:09:41.435Z,22.20
2023-05-24T14:12:14.271Z,22.10
2023-05-24T14:17:19.474Z,22.10
2023-05-24T14:19:47.864Z,22.10
2023-05-24T14:22:17.454Z,22.10
2023-05-24T14:24:47.596Z,22.20
2023-05-24T14:27:19.619Z,22.20
2023-05-24T14:29:50.980Z,22.10
2023-05-24T14:32:20.633Z,22.20
2023-05-24T14:34:54.679Z,22.10
2023-05-24T14:37:25.548Z,22.10
2023-05-24T14:39:55.972Z,22.20
2023-05-24T14:42:25.439Z,22.10
2023-05-24T14:44:56.945Z,22.10
2023-05-24T14:47:26.539Z,22.10
2023-05-24T14:49:54.697Z,22.10
2023-05-24T14:52:25.748Z,22.10
2023-05-24T14:54:58.048Z,22.10
2023-05-24T14:57:29.077Z,22.10
2023-05-24T14:59:59.836Z,22.10
2023-05-24T15:02:28.614Z,22.10
2023-05-24T15:04:59.064Z,22.10
2023-05-24T15:07:29.869Z,22.10
2023-05-24T15:10:00.941Z,22.10
2023-05-24T15:12:33.403Z,22.10
2023-05-24T15:15:05.383Z,22.10
2023-05-24T15:17:35.935Z,22.10
2023-05-24T15:20:13.169Z,22.00
2023-05-24T15:22:41.767Z,22.10
2023-05-24T15:25:18.343Z,22.10
2023-05-24T15:27:50.373Z,22.10
2023-05-24T15:30:26.723Z,22.10
2023-05-24T15:32:58.016Z,22.10
2023-05-24T15:38:08.897Z,22.00
2023-05-24T15:40:38.844Z,22.00
2023-05-24T15:43:09.555Z,22.10
2023-05-24T15:45:41.204Z,22.00
2023-05-24T15:48:10.166Z,22.00
2023-05-24T15:53:30.516Z,22.00
2023-05-24T15:55:58.449Z,22.00
2023-05-24T15:58:26.415Z,22.00
2023-05-24T16:00:55.658Z,22.10
2023-05-24T16:03:26.643Z,22.10
2023-05-24T16:05:56.367Z,22.10
2023-05-24T16:08:30.391Z,22.00
2023-05-24T16:11:02.801Z,22.00
2023-05-24T16:13:31.098Z,22.00
2023-05-24T16:16:02.491Z,22.10
2023-05-24T16:18:36.762Z,22.10
2023-05-24T16:21:07.063Z,22.00
2023-05-24T16:23:39.953Z,22.00
2023-05-24T16:26:08.372Z,22.10
2023-05-24T16:28:39.051Z,22.10
2023-05-24T16:31:07.444Z,22.10
2023-05-24T16:33:38.872Z,22.10
2023-05-24T16:36:07.382Z,22.10
2023-05-24T16:38:37.632Z,22.10
2023-05-24T16:41:09.326Z,22.10
2023-05-24T16:43:41.320Z,22.20
2023-05-24T16:46:14.149Z,22.10
2023-05-24T16:48:45.233Z,22.20
2023-05-24T16:51:14.320Z,22.10
2023-05-24T16:53:46.108Z,22.20
2023-05-24T16:56:16.157Z,22.20
2023-05-24T16:58:46.401Z,22.20
2023-05-24T17:01:14.852Z,22.20
2023-05-24T17:03:48.039Z,22.20
2023-05-24T17:06:17.423Z,22.20
2023-05-24T17:08:49.104Z,22.10
2023-05-24T17:11:22.273Z,22.10
2023-05-24T17:13:54.584Z,22.20
2023-05-24T17:16:30.372Z,22.20
2023-05-24T17:19:02.552Z,22.20
2023-05-24T17:21:34.091Z,22.20
2023-05-24T17:24:00.951Z,22.20
2023-05-24T17:26:32.308Z,22.20
2023-05-24T17:29:04.263Z,22.20
2023-05-24T17:31:36.519Z,22.20
2023-05-24T17:34:04.266Z,22.20
2023-05-24T17:36:36.666Z,22.20
2023-05-24T17:39:10.719Z,22.20
2023-05-24T17:41:41.074Z,22.20
2023-05-24T17:44:11.180Z,22.20
2023-05-24T17:46:41.898Z,22.20
2023-05-24T17:49:10.740Z,22.20
2023-05-24T17:51:43.563Z,22.20
2023-05-24T17:54:12.687Z,22.20
2023-05-24T17:56:42.630Z,22.20
2023-05-24T17:59:13.891Z,22.20
2023-05-24T18:01:48.364Z,22.20
2023-05-24T18:04:25.720Z,22.20
2023-05-24T18:06:55.621Z,22.20
2023-05-24T18:09:25.714Z,22.20
2023-05-24T18:12:07.177Z,22.20
2023-05-24T18:14:41.418Z,22.20
2023-05-24T18:17:11.335Z,22.20
2023-05-24T18:19:42.715Z,22.20
2023-05-24T18:22:19.514Z,22.20
2023-05-24T18:24:50.456Z,22.20
2023-05-24T18:27:21.492Z,22.20
2023-05-24T18:29:50.716Z,22.20
2023-05-24T18:32:21.199Z,22.20
2023-05-24T18:34:50.254Z,22.20
2023-05-24T18:37:19.692Z,22.20
2023-05-24T18:39:49.129Z,22.20
2023-05-24T18:42:20.238Z,22.20
2023-05-24T18:44:51.908Z,22.20
2023-05-24T18:47:20.159Z,22.20
2023-05-24T18:49:49.700Z,22.20
2023-05-24T18:52:21.879Z,22.20
2023-05-24T18:54:53.574Z,22.20
2023-05-24T18:57:23.552Z,22.20
2023-05-24T18:59:53.617Z,22.20
2023-05-24T19:02:26.251Z,22.20
2023-05-24T19:04:54.454Z,22.20
2023-05-24T19:07:24.554Z,22.20
2023-05-24T19:09:51.619Z,22.20
2023-05-24T19:12:21.389Z,22.20
2023-05-24T19:14:50.442Z,22.10
2023-05-24T19:17:20.558Z,22.10
2023-05-24T19:19:51.954Z,22.20
2023-05-24T19:22:23.630Z,22.20
2023-05-24T19:24:55.559Z,22.10
2023-05-24T19:27:28.040Z,22.10
2023-05-24T19:30:01.650Z,22.10
2023-05-24T19:32:30.826Z,22.10
2023-05-24T19:35:00.748Z,22.00
2023-05-24T19:37:29.016Z,22.10
2023-05-24T19:40:00.569Z,22.00
2023-05-24T19:42:30.371Z,22.10
2023-05-24T19:47:46.788Z,22.00
2023-05-24T19:50:17.034Z,22.00
2023-05-24T19:52:46.494Z,22.00
2023-05-24T19:55:16.800Z,22.00
2023-05-24T19:57:48.021Z,22.00
2023-05-24T20:00:22.593Z,22.00
2023-05-24T20:02:50.984Z,21.90
2023-05-24T20:08:04.069Z,22.00
2023-05-24T20:10:39.395Z,22.00
2023-05-24T20:13:11.578Z,21.90
2023-05-24T20:15:43.615Z,21.90
2023-05-24T20:18:13.572Z,21.90
2023-05-24T20:20:43.444Z,21.90
2023-05-24T20:23:15.560Z,21.90
2023-05-24T20:25:47.005Z,21.90
2023-05-24T20:28:28.737Z,21.90
2023-05-24T20:31:03.725Z,21.90
2023-05-24T20:33:40.092Z,21.90
2023-05-24T20:36:10.555Z,21.90
2023-05-24T20:38:43.066Z,21.80
2023-05-24T20:41:14.464Z,21.80
2023-05-24T20:43:42.750Z,21.80
2023-05-24T20:46:12.926Z,21.80
2023-05-24T20:48:44.490Z,21.80
2023-05-24T20:51:16.253Z,21.80
2023-05-24T20:53:48.773Z,21.80
2023-05-24T20:56:25.368Z,21.80
2023-05-24T20:58:57.558Z,21.80
2023-05-24T21:01:29.907Z,21.70
2023-05-24T21:04:02.153Z,21.70
2023-05-24T21:06:35.464Z,21.70
2023-05-24T21:09:03.979Z,21.70
2023-05-24T21:11:35.996Z,21.70
2023-05-24T21:14:02.894Z,21.70
2023-05-24T21:16:29.714Z,21.60
2023-05-24T21:19:01.413Z,21.70
2023-05-24T21:21:31.670Z,21.70
2023-05-24T21:24:03.968Z,21.70
2023-05-24T21:26:34.552Z,21.60
2023-05-24T21:29:03.946Z,21.60
2023-05-24T21:31:34.233Z,21.60
2023-05-24T21:34:04.661Z,21.60
2023-05-24T21:36:34.989Z,21.60
2023-05-24T21:39:09.353Z,21.60
2023-05-24T21:41:43.440Z,21.60
2023-05-24T21:44:15.241Z,21.60
2023-05-24T21:46:44.194Z,21.70
2023-05-24T21:49:13.263Z,21.80
2023-05-24T21:51:43.213Z,21.80
2023-05-24T21:54:13.787Z,21.80
2023-05-24T21:56:46.467Z,21.80
2023-05-24T21:59:17.542Z,21.80
2023-05-24T22:01:51.113Z,21.80
2023-05-24T22:04:22.644Z,21.70
2023-05-24T22:09:37.064Z,21.70
2023-05-24T22:12:04.542Z,21.60
2023-05-24T22:14:31.976Z,21.60
2023-05-24T22:17:02.331Z,21.60
2023-05-24T22:22:07.071Z,21.60
2023-05-24T22:24:36.050Z,21.60
2023-05-24T22:27:07.435Z,21.50
2023-05-24T22:29:36.711Z,21.50
2023-05-24T22:32:09.133Z,21.50
2023-05-24T22:34:39.672Z,21.50
2023-05-24T22:37:07.916Z,21.50
2023-05-24T22:39:37.217Z,21.50
2023-05-24T22:42:06.569Z,21.50
2023-05-24T22:44:36.794Z,21.50
2023-05-24T22:47:08.613Z,21.40
2023-05-24T22:49:38.969Z,21.40
2023-05-24T22:52:08.196Z,21.40
2023-05-24T22:54:39.979Z,21.40
2023-05-24T22:57:10.314Z,21.40
2023-05-24T22:59:41.835Z,21.40
2023-05-24T23:02:13.665Z,21.30
2023-05-24T23:04:48.444Z,21.40
2023-05-24T23:07:19.651Z,21.40
2023-05-24T23:09:56.212Z,21.30
2023-05-24T23:12:24.466Z,21.30
2023-05-24T23:14:56.113Z,21.30
2023-05-24T23:17:28.028Z,21.30
2023-05-24T23:19:58.496Z,21.30
2023-05-24T23:22:29.024Z,21.30
2023-05-24T23:25:02.589Z,21.30
2023-05-24T23:27:31.611Z,21.30
2023-05-24T23:30:00.686Z,21.20
2023-05-24T23:32:31.110Z,21.30
2023-05-24T23:35:01.193Z,21.20
2023-05-24T23:37:31.491Z,21.20
2023-05-24T23:40:03.047Z,21.20
2023-05-24T23:42:35.180Z,21.20
2023-05-24T23:45:06.282Z,21.20
2023-05-24T23:47:40.764Z,21.10
2023-05-24T23:50:08.426Z,21.20
2023-05-24T23:52:42.024Z,21.20
2023-05-24T23:55:11.181Z,21.10
2023-05-24T23:57:44.589Z,21.10
